RJOP weather

Komatsushima Heliport
Komatsushima, Tokushima Prefecture, Japan

Public forecast

Using degrees Celsius for public forecast. Weather courtesy of forecast.io.

METAR (pilot weather report)

Retrieved 2019/05/19 16:28 UTC (29 minutes ago):

RJOP 191628Z 16019G29KT 9999 FEW020 SCT040 BKN060 21/16 Q1014 RMK 2CU020 3SC040 7SC060 A2995

TAF (pilot weather forecast)

Closest forecast is Takamatsu Airport, 32.8 nm (60.8 km) WNW. Retrieved 2019/05/19 12:30 UTC (4 hours ago):

TAF TAF RJOT 191109Z 1912/2018 10008KT 9999 -RA FEW025 SCT040 TEMPO 1917/1920 4000 RA BR BECMG 2012/2015 25011KT TEMPO 2012/2018 2500 SHRA BR FEW001 BKN008 BKN015